Terminal Aerodrome Forecast
Issued by NWS Duluth, MN

Home | Current Version | Previous Version | Text Only | Print | Product List | Glossary On
Versions: 1 2 3 4 5 6 7 8 9 10 11 12 13 14 15 16 17
000
FTUS43 KDLH 030812 RRA
TAFDLH
TAF
KDLH 030812Z 0308/0406 24005KT P6SM BKN080
     FM031400 25010KT P6SM BKN050
     FM031700 27012G18KT P6SM VCSH BKN050
      TEMPO 0319/0322 6SM -TSRA BKN035CB
     FM032200 30008KT P6SM BKN070
     FM040200 34005KT P6SM SCT070=

USA.gov is the U.S. government's official web portal to all federal, state and local government web resources and services.